Time;durP1;ratioP1;P1;durP2;ratioP2;P2;SDS_P1;SDS_P2;PMS_P1;PMS_P2;Temp;Humidity;BMP_temperature;BMP_pressure;BME280_temperature;BME280_humidity;BME280_pressure;Samples;Min_cycle;Max_cycle;Signal;HPM_P1;HPM_P2
2023/01/27 00:00:25;;;;;;;15.05;7.95;;;;;;;2.54;66.24;100872.16;5113975;28;20499;-77
2023/01/27 00:02:51;;;;;;;14.00;7.30;;;;;;;2.49;66.32;100876.88;5113669;28;20412;-78
2023/01/27 00:05:17;;;;;;;14.23;8.30;;;;;;;2.55;66.49;100870.38;5113978;28;20382;-78
2023/01/27 00:07:46;;;;;;;13.82;8.20;;;;;;;2.50;66.53;100875.94;5113778;28;20470;-77
2023/01/27 00:10:19;;;;;;;14.60;8.32;;;;;;;2.56;66.71;100879.91;5115157;28;20387;-78
2023/01/27 00:15:32;;;;;;;19.73;11.02;;;;;;;2.52;66.35;100866.22;5114877;28;21527;-77
2023/01/27 00:17:57;;;;;;;12.70;6.87;;;;;;;2.53;66.38;100869.66;5114593;28;20470;-77
2023/01/27 00:26:11;;;;;;;10.67;5.77;;;;;;;2.40;67.08;100854.84;5104138;28;20390;-78
2023/01/27 00:28:38;;;;;;;11.80;7.00;;;;;;;2.39;67.29;100853.19;5114002;28;20867;-78
2023/01/27 00:31:06;;;;;;;11.35;5.65;;;;;;;2.39;67.20;100839.25;5113078;28;20559;-78
2023/01/27 00:33:32;;;;;;;11.32;5.03;;;;;;;2.40;66.95;100843.56;5125340;28;20383;-78
2023/01/27 00:36:00;;;;;;;9.23;4.82;;;;;;;2.36;67.28;100847.34;5116615;28;20399;-78
2023/01/27 00:38:31;;;;;;;12.52;6.10;;;;;;;2.37;66.97;100844.59;5111803;28;20724;-78
2023/01/27 00:41:18;;;;;;;11.60;7.30;;;;;;;2.47;66.92;100836.94;5114290;28;20375;-77
2023/01/27 00:43:48;;;;;;;9.82;5.60;;;;;;;2.53;66.67;100840.88;5113423;28;20451;-78
2023/01/27 00:46:14;;;;;;;11.52;5.97;;;;;;;2.53;66.67;100838.25;5114757;28;20407;-78
2023/01/27 00:48:40;;;;;;;11.07;5.88;;;;;;;2.55;66.32;100836.34;5114048;28;20911;-77
2023/01/27 00:51:05;;;;;;;11.88;7.13;;;;;;;2.52;66.72;100826.09;5127416;27;20387;-78
2023/01/27 00:53:31;;;;;;;12.95;7.43;;;;;;;2.50;66.80;100826.22;5117605;28;20380;-78
2023/01/27 00:55:57;;;;;;;11.18;6.57;;;;;;;2.52;66.81;100828.72;5117680;28;20391;-78
2023/01/27 00:58:27;;;;;;;12.13;5.97;;;;;;;2.50;66.58;100815.75;5117611;28;20398;-78
2023/01/27 01:00:58;;;;;;;14.02;8.90;;;;;;;2.37;67.15;100818.44;5116727;28;20411;-78
2023/01/27 01:03:24;;;;;;;12.63;5.38;;;;;;;2.39;67.39;100816.53;5115557;28;20943;-78
2023/01/27 01:05:50;;;;;;;10.32;5.80;;;;;;;2.39;67.33;100816.53;5115389;28;20371;-78
2023/01/27 01:08:16;;;;;;;13.85;6.03;;;;;;;2.42;67.18;100818.13;5115698;28;20368;-79
2023/01/27 01:10:42;;;;;;;12.82;6.13;;;;;;;2.38;67.38;100808.84;5116729;28;20386;-78
2023/01/27 01:13:10;;;;;;;8.50;5.10;;;;;;;2.40;66.94;100806.94;5115057;28;20376;-79
2023/01/27 01:15:37;;;;;;;10.63;5.53;;;;;;;2.54;67.06;100818.97;5116184;28;20521;-79
2023/01/27 01:18:04;;;;;;;10.97;5.47;;;;;;;2.59;66.72;100820.31;5115630;28;20887;-79
2023/01/27 01:20:29;;;;;;;11.40;5.10;;;;;;;2.66;66.56;100824.09;5114291;28;20440;-79
2023/01/27 01:22:56;;;;;;;10.83;4.87;;;;;;;2.53;67.11;100819.94;5115838;27;20379;-78
2023/01/27 01:25:22;;;;;;;12.07;4.65;;;;;;;2.46;67.29;100817.75;5115606;28;20372;-79
2023/01/27 01:27:47;;;;;;;11.50;4.90;;;;;;;2.59;66.89;100822.94;5115423;28;20448;-79
2023/01/27 01:30:13;;;;;;;10.63;4.60;;;;;;;2.54;66.98;100816.34;5115164;28;20722;-79
2023/01/27 01:32:38;;;;;;;11.90;4.80;;;;;;;2.54;67.06;100814.59;5113349;28;20379;-79
2023/01/27 01:35:04;;;;;;;10.75;4.57;;;;;;;2.51;67.03;100819.22;5102262;28;20508;-79
2023/01/27 01:37:29;;;;;;;12.07;4.72;;;;;;;2.57;67.01;100813.50;5113854;28;20394;-79
2023/01/27 01:39:55;;;;;;;9.40;4.60;;;;;;;2.59;66.75;100804.59;5103420;28;20429;-79
2023/01/27 01:42:20;;;;;;;10.70;4.40;;;;;;;2.66;66.59;100818.88;5115995;28;20437;-79
2023/01/27 01:44:46;;;;;;;8.60;4.07;;;;;;;2.60;66.41;100805.44;5102656;28;20373;-79
2023/01/27 01:47:16;;;;;;;9.23;4.30;;;;;;;2.60;66.79;100802.81;5101398;28;20413;-79
2023/01/27 01:49:44;;;;;;;9.13;4.78;;;;;;;2.60;66.71;100789.72;5114767;28;20391;-79
2023/01/27 01:52:15;;;;;;;8.82;4.38;;;;;;;2.60;66.82;100802.81;5108972;28;20392;-80
2023/01/27 01:54:49;;;;;;;10.07;4.15;;;;;;;2.53;66.70;100791.16;5106253;28;20496;-79
2023/01/27 01:57:30;;;;;;;7.53;4.30;;;;;;;2.46;67.06;100796.00;5114613;28;20384;-79
2023/01/27 02:00:05;;;;;;;6.90;4.75;;;;;;;2.47;67.23;100806.34;5114345;28;20372;-80
2023/01/27 02:02:32;;;;;;;10.18;5.20;;;;;;;2.54;67.12;100788.41;5106408;28;20396;-79
2023/01/27 02:05:07;;;;;;;6.70;4.30;;;;;;;2.65;66.47;100795.47;5101365;28;20465;-80
2023/01/27 02:07:46;;;;;;;10.15;4.97;;;;;;;2.62;66.31;100787.84;5111455;28;20756;-79
2023/01/27 02:10:12;;;;;;;8.98;4.55;;;;;;;2.68;66.53;100787.34;5110736;28;20854;-79
2023/01/27 02:12:38;;;;;;;12.48;7.13;;;;;;;2.63;66.56;100779.03;5105557;28;20522;-80
2023/01/27 02:15:05;;;;;;;10.55;5.15;;;;;;;2.62;66.36;100782.59;5102391;28;20413;-79
2023/01/27 02:17:31;;;;;;;8.85;5.00;;;;;;;2.62;66.37;100782.59;5112405;28;20454;-80
2023/01/27 02:20:21;;;;;;;9.13;4.93;;;;;;;2.45;67.12;100786.50;5114482;28;20416;-79
2023/01/27 02:23:05;;;;;;;9.88;4.90;;;;;;;2.54;67.08;100782.31;5105951;28;20750;-79
2023/01/27 02:25:34;;;;;;;12.40;5.28;;;;;;;2.45;66.95;100784.72;5102580;28;20372;-80
2023/01/27 02:28:04;;;;;;;11.40;5.20;;;;;;;2.58;66.83;100783.78;5109726;28;20829;-79
2023/01/27 02:30:30;;;;;;;10.15;4.53;;;;;;;2.47;66.66;100785.44;5102235;28;20912;-79
2023/01/27 02:32:55;;;;;;;9.63;4.60;;;;;;;2.54;66.77;100787.56;5099531;28;20414;-79
2023/01/27 02:35:40;;;;;;;10.23;4.70;;;;;;;2.53;66.89;100778.88;5106408;28;20457;-79
2023/01/27 02:38:08;;;;;;;11.63;5.00;;;;;;;2.52;66.94;100771.16;5110626;28;20377;-79
2023/01/27 02:40:35;;;;;;;9.30;4.70;;;;;;;2.65;66.54;100777.97;5114274;28;20376;-80
2023/01/27 02:43:03;;;;;;;10.88;4.93;;;;;;;2.68;66.21;100777.72;5115235;28;20383;-79
2023/01/27 02:45:29;;;;;;;11.93;5.10;;;;;;;2.70;66.46;100767.13;5098814;28;20438;-79
2023/01/27 02:47:54;;;;;;;12.43;5.37;;;;;;;2.70;66.25;100766.28;5109358;28;20383;-80
2023/01/27 02:50:20;;;;;;;13.37;5.10;;;;;;;2.77;66.33;100777.97;5099071;28;20381;-79
2023/01/27 02:52:45;;;;;;;12.63;4.73;;;;;;;2.78;65.99;100763.94;5101205;28;20450;-79
2023/01/27 02:55:11;;;;;;;9.68;4.78;;;;;;;2.80;66.14;100769.88;5103076;28;20388;-79
2023/01/27 02:57:36;;;;;;;10.43;4.38;;;;;;;2.73;65.93;100748.56;5109363;28;20394;-79
2023/01/27 03:00:03;;;;;;;10.30;5.20;;;;;;;2.77;65.95;100752.63;5097728;28;20367;-79
2023/01/27 03:02:29;;;;;;;11.38;4.97;;;;;;;2.76;66.11;100747.53;5109506;28;20391;-80
2023/01/27 03:04:56;;;;;;;11.15;4.80;;;;;;;2.81;66.00;100743.59;5104211;28;20416;-80
2023/01/27 03:07:22;;;;;;;11.40;4.97;;;;;;;2.76;66.13;100734.44;5112110;28;20411;-80
2023/01/27 03:09:47;;;;;;;15.88;5.82;;;;;;;2.77;65.78;100742.13;5105011;28;20371;-79
2023/01/27 03:12:19;;;;;;;12.57;5.00;;;;;;;2.74;65.88;100733.69;5104544;28;20381;-79
2023/01/27 03:20:12;;;;;;;11.95;4.38;;;;;;;2.50;66.94;100726.78;5110091;28;20429;-80
2023/01/27 03:22:38;;;;;;;10.87;4.10;;;;;;;2.45;67.04;100714.06;5112620;28;20430;-80
2023/01/27 03:25:04;;;;;;;7.50;3.20;;;;;;;2.41;67.18;100719.63;5108509;28;20376;-80
2023/01/27 03:27:29;;;;;;;7.82;2.97;;;;;;;2.44;67.31;100714.19;5111181;28;20407;-80
2023/01/27 03:29:55;;;;;;;8.40;3.17;;;;;;;2.54;67.32;100719.53;5110464;28;20407;-80
2023/01/27 03:32:25;;;;;;;10.03;3.80;;;;;;;2.48;67.04;100708.59;5101772;28;20462;-80
2023/01/27 03:34:50;;;;;;;8.30;3.53;;;;;;;2.39;67.13;100717.13;5112786;28;20474;-79
2023/01/27 03:48:12;;;;;;;6.10;2.23;;;;;;;2.47;67.39;100706.09;5110093;28;20439;-79
2023/01/27 03:50:42;;;;;;;5.85;2.75;;;;;;;2.48;67.37;100712.97;5111412;28;20469;-81
2023/01/27 03:53:08;;;;;;;7.65;4.53;;;;;;;2.53;67.05;100697.78;5109361;28;20375;-80
2023/01/27 03:55:35;;;;;;;7.70;3.95;;;;;;;2.56;66.67;100705.41;5109879;28;20490;-79
2023/01/27 03:58:17;;;;;;;6.22;3.40;;;;;;;2.57;66.64;100711.44;5107631;28;20377;-80
2023/01/27 04:00:43;;;;;;;6.30;3.50;;;;;;;2.46;66.82;100722.75;5107944;28;20489;-79
2023/01/27 04:08:37;;;;;;;5.60;3.00;;;;;;;2.67;66.45;100722.88;5124648;28;20850;-81
2023/01/27 04:13:47;;;;;;;7.65;3.78;;;;;;;2.54;67.00;100719.53;5116231;28;20394;-81
2023/01/27 04:16:13;;;;;;;3.73;2.80;;;;;;;2.59;66.94;100728.72;5115170;28;20861;-81
2023/01/27 04:18:38;;;;;;;5.27;2.70;;;;;;;2.67;66.85;100723.72;5105838;28;20879;-81
2023/01/27 04:21:04;;;;;;;5.43;3.00;;;;;;;2.63;66.74;100714.44;5103782;28;20438;-80
2023/01/27 04:23:29;;;;;;;4.00;2.67;;;;;;;2.57;66.66;100720.13;5120524;28;20407;-81
2023/01/27 04:25:55;;;;;;;5.07;3.40;;;;;;;2.61;66.78;100716.34;5109242;28;20407;-81
2023/01/27 04:28:21;;;;;;;6.68;3.22;;;;;;;2.74;66.57;100725.84;5110917;28;20860;-81
2023/01/27 04:30:47;;;;;;;5.82;3.30;;;;;;;2.60;66.81;100711.22;5111108;28;20420;-81
2023/01/27 04:33:14;;;;;;;4.25;2.83;;;;;;;2.54;66.87;100717.75;5098103;28;20440;-80
2023/01/27 04:35:44;;;;;;;6.00;2.78;;;;;;;2.62;67.03;100718.00;5116094;28;20980;-80
2023/01/27 04:38:10;;;;;;;6.33;3.70;;;;;;;2.65;66.74;100720.38;5114476;28;20713;-80
2023/01/27 04:40:35;;;;;;;2.67;1.70;;;;;;;2.56;66.98;100722.88;5117553;28;20386;-80
2023/01/27 04:43:00;;;;;;;3.90;2.20;;;;;;;2.53;66.82;100718.72;5117326;28;20392;-80
2023/01/27 04:45:26;;;;;;;3.80;2.20;;;;;;;2.56;66.92;100715.84;5117321;28;20392;-80
2023/01/27 04:47:51;;;;;;;3.77;1.93;;;;;;;2.42;67.04;100716.91;5115031;28;20863;-79
2023/01/27 04:50:17;;;;;;;4.00;2.33;;;;;;;2.34;67.64;100707.97;5114907;28;20387;-80
2023/01/27 04:52:44;;;;;;;3.00;1.80;;;;;;;2.31;67.43;100708.22;5114809;28;20801;-79
2023/01/27 04:55:09;;;;;;;4.47;2.28;;;;;;;2.38;67.60;100719.91;5115553;28;20490;-80
2023/01/27 04:57:35;;;;;;;2.97;2.00;;;;;;;2.31;67.47;100706.44;5115670;27;20479;-80
2023/01/27 05:00:03;;;;;;;4.40;2.53;;;;;;;2.24;67.77;100715.69;5115156;28;20426;-79
2023/01/27 05:02:28;;;;;;;2.72;1.90;;;;;;;2.29;68.02;100722.25;5115102;28;20475;-80
2023/01/27 05:04:54;;;;;;;3.25;2.08;;;;;;;2.28;67.87;100725.78;5114959;28;20403;-79
2023/01/27 05:07:19;;;;;;;5.20;2.30;;;;;;;2.32;67.93;100723.78;5114872;28;20387;-80
2023/01/27 05:09:45;;;;;;;5.70;2.77;;;;;;;2.34;67.78;100726.28;5114571;28;20932;-79
2023/01/27 05:12:10;;;;;;;7.43;2.60;;;;;;;2.32;67.69;100731.63;5114876;28;20392;-79
2023/01/27 05:14:35;;;;;;;4.43;2.38;;;;;;;2.29;67.70;100729.28;5115467;28;20491;-79
2023/01/27 05:17:01;;;;;;;7.10;3.10;;;;;;;2.34;67.83;100721.91;5114794;28;20406;-79
2023/01/27 05:19:26;;;;;;;5.93;2.80;;;;;;;2.38;67.84;100722.50;5116399;28;20379;-79
2023/01/27 05:21:52;;;;;;;4.50;2.40;;;;;;;2.52;67.30;100737.13;5115619;28;20398;-79
2023/01/27 05:24:17;;;;;;;5.10;2.40;;;;;;;2.32;67.27;100730.81;5114918;28;20385;-80
2023/01/27 05:26:43;;;;;;;5.35;2.38;;;;;;;2.29;67.88;100745.78;5116793;28;20388;-80
2023/01/27 05:29:08;;;;;;;5.53;3.10;;;;;;;2.28;68.16;100764.22;5115588;28;20773;-80
2023/01/27 05:31:34;;;;;;;6.77;4.00;;;;;;;2.34;67.81;100742.84;5114495;28;20422;-80
2023/01/27 05:34:01;;;;;;;13.17;6.73;;;;;;;2.43;67.57;100759.59;5115526;28;20384;-79
2023/01/27 05:36:27;;;;;;;11.27;7.38;;;;;;;2.44;67.59;100758.66;5114737;28;20876;-79
2023/01/27 05:38:54;;;;;;;12.90;7.60;;;;;;;2.53;67.42;100752.72;5111899;28;20779;-80
2023/01/27 05:41:20;;;;;;;13.45;8.27;;;;;;;2.61;67.28;100763.44;5115549;28;20376;-80
2023/01/27 05:43:51;;;;;;;11.48;8.40;;;;;;;2.62;67.07;100770.34;5112021;28;20711;-80
2023/01/27 05:46:20;;;;;;;12.43;6.53;;;;;;;2.57;67.08;100774.25;5115149;28;20379;-80
2023/01/27 05:48:48;;;;;;;10.57;6.32;;;;;;;2.67;67.29;100772.63;5114546;28;20702;-80
2023/01/27 05:51:15;;;;;;;11.98;6.00;;;;;;;2.59;66.86;100761.88;5101500;28;20443;-79
2023/01/27 05:53:41;;;;;;;14.95;9.48;;;;;;;2.47;67.54;100766.28;5108995;28;20381;-80
2023/01/27 05:56:09;;;;;;;18.52;11.35;;;;;;;2.60;67.14;100771.41;5120057;28;20408;-79
2023/01/27 05:58:35;;;;;;;19.70;12.60;;;;;;;2.51;67.19;100766.88;5117575;28;20395;-81
2023/01/27 06:01:09;;;;;;;10.27;7.05;;;;;;;2.36;67.66;100769.72;5113428;28;20406;-80
2023/01/27 06:03:35;;;;;;;34.33;16.83;;;;;;;2.46;67.72;100765.44;5112609;28;20740;-80
2023/01/27 06:06:01;;;;;;;12.50;8.25;;;;;;;2.42;67.42;100777.09;5113601;28;20376;-80
2023/01/27 06:08:27;;;;;;;6.68;5.13;;;;;;;2.41;67.64;100764.97;5117616;28;20408;-79
2023/01/27 06:10:52;;;;;;;7.80;5.82;;;;;;;2.58;67.21;100776.75;5114017;28;20448;-81
2023/01/27 06:13:21;;;;;;;12.75;9.02;;;;;;;2.54;67.12;100784.94;5109529;28;20858;-81
2023/01/27 06:15:47;;;;;;;12.13;8.68;;;;;;;2.48;67.31;100779.25;5113824;28;20410;-81
2023/01/27 06:18:14;;;;;;;18.92;11.70;;;;;;;2.44;67.42;100769.13;5116863;28;20380;-82
2023/01/27 06:20:40;;;;;;;17.95;9.45;;;;;;;2.58;67.33;100774.16;5106601;28;20438;-80
2023/01/27 06:23:07;;;;;;;21.70;12.20;;;;;;;2.62;66.69;100764.28;5107942;28;20467;-81
2023/01/27 06:25:37;;;;;;;17.52;10.10;;;;;;;2.64;66.81;100772.84;5095213;28;20863;-79
2023/01/27 06:28:03;;;;;;;18.58;9.82;;;;;;;2.58;67.07;100768.09;5107641;28;20371;-81
2023/01/27 06:30:29;;;;;;;18.30;10.63;;;;;;;2.71;66.77;100763.56;5114429;28;20426;-81
2023/01/27 06:32:54;;;;;;;22.90;13.80;;;;;;;2.82;66.69;100766.19;5100718;28;20377;-81
2023/01/27 06:35:20;;;;;;;17.97;10.60;;;;;;;2.76;66.23;100753.59;5099789;28;20410;-78
2023/01/27 06:37:45;;;;;;;13.90;7.07;;;;;;;2.72;66.45;100760.00;5099944;28;20734;-78
2023/01/27 06:40:11;;;;;;;9.37;6.40;;;;;;;2.66;66.86;100756.06;5107840;28;20849;-81
2023/01/27 06:42:37;;;;;;;7.37;5.77;;;;;;;2.69;66.70;100749.78;5101994;28;20383;-80
2023/01/27 06:45:03;;;;;;;8.20;4.83;;;;;;;2.63;66.57;100748.47;5093062;28;20406;-81
2023/01/27 06:47:28;;;;;;;6.50;4.43;;;;;;;2.51;66.88;100756.41;5095419;28;20385;-79
2023/01/27 06:49:53;;;;;;;6.00;3.53;;;;;;;2.55;67.31;100766.50;5091829;28;20465;-79
2023/01/27 06:52:19;;;;;;;3.77;2.90;;;;;;;2.48;67.05;100770.53;5091911;28;20428;-79
2023/01/27 06:54:44;;;;;;;6.88;3.70;;;;;;;2.38;67.70;100775.66;5096205;28;20416;-78
2023/01/27 06:57:10;;;;;;;4.87;3.93;;;;;;;2.39;67.79;100779.09;5105961;28;20393;-78
2023/01/27 06:59:35;;;;;;;7.70;6.00;;;;;;;2.38;68.02;100770.41;5106611;28;20381;-78
2023/01/27 07:02:01;;;;;;;16.63;11.77;;;;;;;2.53;67.56;100772.81;5098941;28;20925;-78
2023/01/27 07:04:28;;;;;;;19.38;12.80;;;;;;;2.59;67.12;100770.59;5107413;28;20385;-78
2023/01/27 07:06:54;;;;;;;15.20;10.43;;;;;;;2.54;67.18;100761.41;5108975;28;20402;-77
2023/01/27 07:09:19;;;;;;;12.90;8.73;;;;;;;2.52;67.11;100758.94;5111269;28;20459;-79
2023/01/27 07:11:44;;;;;;;13.40;8.18;;;;;;;2.58;67.08;100776.75;5112272;28;20470;-78
2023/01/27 07:14:10;;;;;;;12.23;9.00;;;;;;;2.66;67.28;100771.75;5107393;28;20451;-78
2023/01/27 07:16:35;;;;;;;15.30;10.40;;;;;;;2.73;66.91;100761.66;5105267;28;20378;-78
2023/01/27 07:19:19;;;;;;;16.80;10.83;;;;;;;2.55;67.35;100773.53;5089751;28;20393;-77
2023/01/27 07:21:45;;;;;;;14.93;9.70;;;;;;;2.60;67.24;100779.25;5100574;28;20398;-77
2023/01/27 07:24:10;;;;;;;13.20;9.57;;;;;;;2.55;67.39;100765.69;5112842;28;20379;-79
2023/01/27 07:26:36;;;;;;;15.30;9.73;;;;;;;2.55;67.39;100765.69;5113275;28;20417;-78
2023/01/27 07:29:01;;;;;;;17.42;11.10;;;;;;;2.65;67.65;100777.13;5109291;28;20464;-78
2023/01/27 07:31:27;;;;;;;19.65;12.30;;;;;;;2.70;67.19;100769.75;5100758;28;20431;-79
2023/01/27 07:33:52;;;;;;;22.10;14.30;;;;;;;2.65;67.15;100772.72;5112238;28;20360;-78
2023/01/27 07:36:18;;;;;;;26.47;17.47;;;;;;;2.64;67.06;100773.66;5111543;28;20712;-78
2023/01/27 07:38:44;;;;;;;22.88;15.73;;;;;;;2.71;66.84;100786.31;5113051;28;20371;-79
2023/01/27 07:41:10;;;;;;;22.60;15.43;;;;;;;2.74;66.99;100779.03;5119758;28;20782;-78
2023/01/27 07:43:35;;;;;;;22.08;14.18;;;;;;;2.77;66.74;100789.25;5119194;28;20378;-78
2023/01/27 07:46:01;;;;;;;17.60;12.50;;;;;;;2.79;66.74;100779.53;5116098;28;20367;-78
2023/01/27 07:48:26;;;;;;;20.92;13.35;;;;;;;2.87;66.57;100784.16;5116400;28;20386;-79
2023/01/27 07:50:52;;;;;;;19.97;14.07;;;;;;;2.93;66.44;100788.09;5115770;28;20368;-78
2023/01/27 07:53:17;;;;;;;25.27;16.87;;;;;;;3.05;66.13;100790.59;5115442;28;20852;-77
2023/01/27 07:55:43;;;;;;;22.07;14.27;;;;;;;2.95;66.53;100784.38;5116043;28;20542;-77
2023/01/27 07:58:08;;;;;;;20.88;14.88;;;;;;;2.96;66.53;100793.09;5119352;28;20428;-78
2023/01/27 08:00:34;;;;;;;21.23;14.67;;;;;;;2.92;65.93;100795.13;5120359;28;20864;-78
2023/01/27 08:03:01;;;;;;;25.27;16.20;;;;;;;2.92;66.44;100784.66;5103035;28;20424;-76
2023/01/27 08:05:28;;;;;;;29.00;18.85;;;;;;;3.01;66.21;100797.03;5098483;28;20449;-79
2023/01/27 08:07:54;;;;;;;25.33;16.98;;;;;;;3.02;66.05;100805.72;5096762;28;21141;-79
2023/01/27 08:10:21;;;;;;;22.65;15.82;;;;;;;3.04;66.34;100803.81;5096106;28;20515;-80
2023/01/27 08:12:47;;;;;;;18.98;13.85;;;;;;;3.06;66.11;100802.75;5104405;28;20410;-79
2023/01/27 08:15:13;;;;;;;25.27;16.67;;;;;;;2.95;66.01;100794.88;5114209;28;20907;-76
2023/01/27 08:17:38;;;;;;;22.33;15.30;;;;;;;2.91;66.22;100801.31;5113199;28;20788;-77
2023/01/27 08:20:04;;;;;;;23.17;15.45;;;;;;;3.03;66.15;100804.78;5113238;28;20391;-78
2023/01/27 08:22:30;;;;;;;20.92;14.23;;;;;;;2.95;65.96;100799.28;5114057;28;20371;-78
2023/01/27 08:24:56;;;;;;;18.40;12.37;;;;;;;2.93;66.15;100806.44;5114381;28;20367;-78
2023/01/27 08:27:21;;;;;;;14.77;11.40;;;;;;;2.93;66.01;100794.16;5113866;28;20452;-78
2023/01/27 08:29:47;;;;;;;18.60;13.27;;;;;;;3.00;66.05;100800.59;5112761;28;20400;-79
2023/01/27 08:32:12;;;;;;;21.77;13.83;;;;;;;3.11;65.83;100799.75;5114034;28;20796;-78
2023/01/27 08:34:39;;;;;;;18.65;13.57;;;;;;;3.08;65.92;100807.00;5112537;28;21011;-79
2023/01/27 08:37:05;;;;;;;18.13;12.73;;;;;;;3.00;65.98;100800.59;5112993;28;21014;-80
2023/01/27 08:39:31;;;;;;;17.08;12.50;;;;;;;3.08;65.85;100799.16;5113349;28;20375;-79
2023/01/27 08:41:57;;;;;;;18.05;13.57;;;;;;;3.15;65.77;100798.59;5112089;28;20378;-78
2023/01/27 08:44:23;;;;;;;18.87;13.80;;;;;;;3.17;65.73;100807.16;5113980;28;20451;-78
2023/01/27 08:46:49;;;;;;;20.80;14.53;;;;;;;3.22;65.59;100806.78;5112751;27;20383;-77
2023/01/27 08:49:14;;;;;;;28.42;18.02;;;;;;;3.21;65.72;100808.56;5112434;28;20372;-78
2023/01/27 08:51:40;;;;;;;28.13;17.37;;;;;;;3.10;65.78;100807.72;5114033;28;20441;-79
2023/01/27 08:54:06;;;;;;;31.83;20.45;;;;;;;3.15;66.07;100801.19;5114417;28;20860;-79
2023/01/27 08:56:32;;;;;;;23.90;16.50;;;;;;;3.12;65.49;100806.66;5114461;28;20409;-78
2023/01/27 08:58:58;;;;;;;18.15;12.32;;;;;;;3.18;66.63;100813.22;5115507;28;20383;-78
2023/01/27 09:01:24;;;;;;;23.48;15.93;;;;;;;3.21;66.77;100807.75;5115936;28;20425;-78
2023/01/27 09:03:50;;;;;;;37.22;22.42;;;;;;;3.05;66.49;100813.34;5114884;28;20875;-77
2023/01/27 09:06:15;;;;;;;48.00;27.50;;;;;;;3.07;66.04;100808.81;5114837;28;20407;-77
2023/01/27 09:08:42;;;;;;;35.20;21.00;;;;;;;3.20;66.92;100821.78;5114339;28;20409;-78
2023/01/27 09:11:13;;;;;;;32.00;20.35;;;;;;;3.11;66.08;100809.41;5114163;28;20385;-78
2023/01/27 09:13:39;;;;;;;49.00;29.77;;;;;;;3.21;65.67;100808.56;5114398;27;20379;-78
2023/01/27 09:16:05;;;;;;;43.93;26.43;;;;;;;3.24;65.39;100800.47;5113427;28;20720;-77
2023/01/27 09:18:31;;;;;;;48.47;30.30;;;;;;;3.29;65.33;100807.13;5112166;28;20744;-78
2023/01/27 09:20:56;;;;;;;33.95;21.35;;;;;;;3.17;65.98;100804.53;5113495;28;20382;-78
2023/01/27 09:23:22;;;;;;;28.30;17.37;;;;;;;3.14;65.62;100814.41;5113376;28;20372;-78
2023/01/27 09:25:48;;;;;;;31.50;18.57;;;;;;;3.27;65.88;100799.41;5113731;28;20407;-79
2023/01/27 09:28:16;;;;;;;21.50;14.23;;;;;;;3.37;65.41;100802.97;5115110;28;20372;-78
2023/01/27 09:30:45;;;;;;;21.92;12.60;;;;;;;3.45;65.26;100800.56;5118708;28;20502;-80
2023/01/27 09:33:14;;;;;;;21.83;11.45;;;;;;;3.20;65.50;100793.78;5116695;28;20872;-79
2023/01/27 09:35:56;;;;;;;19.15;12.00;;;;;;;3.18;65.53;100793.09;5114143;28;20395;-79
2023/01/27 09:38:24;;;;;;;20.50;12.13;;;;;;;3.19;65.70;100792.16;5116060;28;20371;-79
2023/01/27 09:41:02;;;;;;;15.82;10.50;;;;;;;3.23;65.46;100783.09;5114824;28;21008;-80
2023/01/27 09:43:37;;;;;;;12.85;7.97;;;;;;;3.18;65.68;100785.22;5114003;28;20926;-78
2023/01/27 09:46:22;;;;;;;10.87;8.43;;;;;;;3.30;65.79;100785.25;5112756;28;20740;-78
2023/01/27 09:48:53;;;;;;;14.15;9.48;;;;;;;3.41;65.57;100779.97;5115761;28;20364;-79
2023/01/27 09:51:42;;;;;;;12.48;8.57;;;;;;;3.43;65.13;100768.41;5112683;28;20380;-79
2023/01/27 09:54:34;;;;;;;14.43;10.15;;;;;;;3.34;65.08;100777.00;5112205;28;20394;-77
2023/01/27 09:57:14;;;;;;;15.00;10.00;;;;;;;3.45;65.23;100774.34;5113555;28;20502;-78
2023/01/27 09:59:58;;;;;;;12.93;9.73;;;;;;;3.55;65.07;100768.41;5112308;28;20380;-78
2023/01/27 10:02:40;;;;;;;14.07;9.70;;;;;;;3.53;64.93;100772.91;5112416;28;20460;-77
2023/01/27 10:05:18;;;;;;;14.90;10.13;;;;;;;3.41;65.26;100761.63;5113112;27;20825;-77
2023/01/27 10:07:55;;;;;;;13.20;9.10;;;;;;;3.50;65.17;100758.28;5111950;28;20383;-79
2023/01/27 10:10:36;;;;;;;8.95;5.90;;;;;;;3.41;65.32;100762.44;5113471;28;20474;-78
2023/01/27 10:13:52;;;;;;;9.93;7.10;;;;;;;3.40;65.57;100771.28;5112825;28;20398;-79
2023/01/27 10:16:59;;;;;;;11.17;7.67;;;;;;;3.45;65.26;100760.41;5078407;28;20963;-78
2023/01/27 10:19:30;;;;;;;8.23;6.30;;;;;;;3.54;65.40;100754.44;5030560;28;20530;-79
2023/01/27 10:21:55;;;;;;;10.73;7.53;;;;;;;3.42;65.30;100739.69;5099909;27;20380;-78
2023/01/27 10:24:36;;;;;;;10.27;7.97;;;;;;;3.40;65.63;100752.94;5112894;28;20454;-79
2023/01/27 10:27:07;;;;;;;11.88;7.90;;;;;;;3.35;65.73;100743.75;5114047;28;20379;-78
2023/01/27 10:29:42;;;;;;;8.13;5.93;;;;;;;3.33;65.97;100741.28;5112407;28;20806;-79
2023/01/27 10:32:33;;;;;;;12.43;7.43;;;;;;;3.41;66.04;100740.66;5113299;28;20375;-79
2023/01/27 10:35:25;;;;;;;11.43;7.85;;;;;;;3.51;65.91;100735.50;5113235;28;20863;-79
2023/01/27 10:38:12;;;;;;;10.73;7.13;;;;;;;3.46;65.47;100720.16;5116685;28;20379;-81
2023/01/27 10:41:05;;;;;;;12.10;8.15;;;;;;;3.48;65.40;100735.78;5113835;28;20378;-79
2023/01/27 10:43:56;;;;;;;15.43;11.00;;;;;;;3.36;65.95;100727.09;5113406;28;20806;-78
2023/01/27 10:46:46;;;;;;;10.93;7.30;;;;;;;3.43;65.70;100726.47;5115302;28;20372;-80
2023/01/27 10:49:23;;;;;;;11.63;8.13;;;;;;;3.31;66.04;100727.44;5115986;28;20457;-78
2023/01/27 10:52:20;;;;;;;8.13;6.25;;;;;;;3.25;66.19;100735.81;5116196;28;20475;-79
2023/01/27 10:54:59;;;;;;;14.60;10.57;;;;;;;3.21;66.48;100727.38;5081253;28;20826;-78
2023/01/27 10:57:32;;;;;;;10.48;7.35;;;;;;;3.27;66.15;100717.34;5117405;28;20388;-81
2023/01/27 11:00:05;;;;;;;12.65;8.23;;;;;;;3.23;66.12;100719.38;5115379;28;20375;-79
2023/01/27 11:02:44;;;;;;;11.85;7.88;;;;;;;3.31;65.96;100716.97;5115026;28;20380;-80
2023/01/27 11:05:48;;;;;;;10.18;6.72;;;;;;;3.35;66.15;100728.03;5115058;28;20418;-80
2023/01/27 11:08:25;;;;;;;10.63;7.60;;;;;;;3.24;66.11;100715.78;5096289;28;20406;-79
2023/01/27 11:13:45;;;;;;;10.65;7.68;;;;;;;3.39;65.90;100719.00;5115725;28;20480;-80
2023/01/27 11:16:20;;;;;;;12.65;8.63;;;;;;;3.47;65.72;100713.13;5115625;28;20903;-79
2023/01/27 11:18:54;;;;;;;13.93;10.63;;;;;;;3.57;65.67;100699.16;5119915;28;20379;-79
2023/01/27 11:21:26;;;;;;;10.27;7.90;;;;;;;3.60;65.43;100704.16;5116362;28;20371;-79
2023/01/27 11:23:55;;;;;;;9.88;7.40;;;;;;;3.51;65.51;100701.44;5115800;28;20376;-80
2023/01/27 11:26:42;;;;;;;10.95;7.53;;;;;;;3.48;65.84;100704.31;5118922;28;20369;-80
2023/01/27 11:29:35;;;;;;;13.13;8.60;;;;;;;3.43;65.91;100692.41;5115995;28;20380;-80
2023/01/27 11:32:18;;;;;;;8.57;6.38;;;;;;;3.37;65.96;100695.53;5115724;28;20863;-79
2023/01/27 11:35:02;;;;;;;12.07;8.32;;;;;;;3.56;65.82;100689.63;5119122;28;20503;-79
2023/01/27 11:37:34;;;;;;;13.23;8.13;;;;;;;3.63;65.55;100696.03;5119525;28;20410;-80
2023/01/27 11:40:01;;;;;;;10.55;7.00;;;;;;;3.72;65.66;100710.16;5117300;28;20380;-81
2023/01/27 11:42:33;;;;;;;10.00;6.60;;;;;;;3.69;65.57;100707.81;5114419;28;20407;-80
2023/01/27 11:44:59;;;;;;;15.20;9.95;;;;;;;3.77;65.29;100704.56;5114456;28;20451;-79
2023/01/27 11:47:35;;;;;;;35.03;21.58;;;;;;;3.79;65.25;100697.41;5113788;28;20788;-80
2023/01/27 11:50:03;;;;;;;14.07;8.93;;;;;;;3.79;65.26;100711.34;5113016;28;20414;-80
2023/01/27 11:52:30;;;;;;;19.00;11.70;;;;;;;3.83;65.42;100704.91;5114316;28;20371;-79
2023/01/27 11:55:13;;;;;;;42.50;27.08;;;;;;;3.94;64.85;100700.53;5112838;28;20406;-79
2023/01/27 11:57:42;;;;;;;47.90;31.95;;;;;;;3.95;65.16;100703.03;5107864;28;20464;-80
2023/01/27 12:00:11;;;;;;;29.65;19.83;;;;;;;3.96;64.70;100696.00;5111421;28;20426;-80
2023/01/27 12:03:10;;;;;;;14.68;10.38;;;;;;;3.91;64.42;100699.00;5115160;28;20397;-81
2023/01/27 12:05:42;;;;;;;20.58;14.02;;;;;;;3.81;64.86;100692.84;5115868;28;20367;-81
2023/01/27 12:08:07;;;;;;;20.50;12.27;;;;;;;3.76;65.07;100695.88;5095338;28;20788;-81
2023/01/27 12:10:34;;;;;;;15.13;10.38;;;;;;;3.80;65.00;100709.56;5093427;28;20883;-79